42U weather

Morgan County Airport
Morgan, Utah, United States

Public forecast

Using degrees Fahrenheit for public forecast. Weather courtesy of forecast.io.

METAR (pilot weather report)

Closest report is Hill Air Force Base, 9.4 nm (17.5 km) W. Retrieved 2019/09/15 04:58 UTC (7 minutes ago):

KHIF 150458Z AUTO 06006KT 10SM CLR 21/01 A3009 RMK AO2 SLP136 T02110008

TAF (pilot weather forecast)

Forecast is more than 6 hours old.

Closest forecast is Hill Air Force Base, 9.4 nm (17.5 km) W. Retrieved 2019/09/14 21:15 UTC (8 hours ago):

TAF TAF KHIF 142108Z 1421/1603 23009KT 9999 SKC QNH3010INS BECMG 1501/1502 05009KT 9999 SKC QNH3005INS BECMG 1516/1517 18009KT 9999 SKC QNH2990INS TEMPO 1517/1601 21012G20KT TX28/1423Z TN15/1513Z